Time;durP1;ratioP1;P1;durP2;ratioP2;P2;SDS_P1;SDS_P2;PMS_P1;PMS_P2;Temp;Humidity;BMP_temperature;BMP_pressure;BME280_temperature;BME280_humidity;BME280_pressure;Samples;Min_cycle;Max_cycle;Signal;HPM_P1;HPM_P2
2021/04/06 00:01:49;;;;;;;4.85;1.33;;;;;;;2.34;53.21;99809.53;10339658;28;20068;-59
2021/04/06 00:06:54;;;;;;;4.65;1.30;;;;;;;2.24;54.22;99812.63;10343771;28;20137;-58
2021/04/06 00:11:58;;;;;;;4.07;0.83;;;;;;;2.07;54.26;99792.53;10344150;28;20050;-59
2021/04/06 00:17:02;;;;;;;3.27;1.00;;;;;;;2.03;54.79;99793.63;10351298;28;20050;-60
2021/04/06 00:22:04;;;;;;;2.22;1.08;;;;;;;2.02;54.81;99765.66;10336557;28;20068;-60
2021/04/06 00:27:20;;;;;;;4.30;1.20;;;;;;;2.07;54.77;99763.66;10353262;28;20049;-58
2021/04/06 00:32:24;;;;;;;5.43;1.17;;;;;;;2.01;54.91;99745.59;10346255;28;20050;-58
2021/04/06 00:37:26;;;;;;;6.95;1.75;;;;;;;1.96;54.51;99760.72;10341663;28;20057;-59
2021/04/06 00:42:29;;;;;;;5.53;1.55;;;;;;;1.97;54.19;99751.94;10345337;28;20072;-59
2021/04/06 00:47:30;;;;;;;6.95;1.42;;;;;;;1.99;53.90;99755.31;10342588;28;20712;-59
2021/04/06 00:52:32;;;;;;;4.18;1.20;;;;;;;2.05;53.57;99757.63;10324927;28;20080;-60
2021/04/06 00:57:34;;;;;;;5.70;1.42;;;;;;;2.01;54.27;99763.97;10341900;28;20050;-58
2021/04/06 01:02:35;;;;;;;7.10;1.77;;;;;;;1.86;54.16;99749.00;10338608;28;20049;-60
2021/04/06 01:12:46;;;;;;;6.97;2.20;;;;;;;2.02;54.43;99751.69;10221364;28;20109;-61
2021/04/06 01:17:48;;;;;;;6.15;1.52;;;;;;;2.00;55.08;99741.28;10247867;28;20153;-60
2021/04/06 01:22:54;;;;;;;5.35;2.38;;;;;;;1.93;55.75;99747.78;10234682;28;20300;-60
2021/04/06 01:28:09;;;;;;;7.10;1.95;;;;;;;1.86;56.57;99726.25;10236732;28;20531;-60
2021/04/06 01:33:11;;;;;;;2.95;1.10;;;;;;;1.79;56.43;99716.13;10224886;28;20534;-60
2021/04/06 01:38:14;;;;;;;4.68;1.38;;;;;;;1.76;56.75;99701.44;10236549;28;20092;-60
2021/04/06 01:43:17;;;;;;;4.38;1.23;;;;;;;1.73;56.76;99701.59;10244021;28;20168;-62
2021/04/06 01:48:19;;;;;;;5.43;1.77;;;;;;;1.81;57.03;99701.19;10231776;28;20099;-59
2021/04/06 01:53:22;;;;;;;4.85;1.45;;;;;;;1.91;56.97;99697.97;10232007;28;20051;-59
2021/04/06 01:58:26;;;;;;;5.75;1.80;;;;;;;1.90;56.86;99687.56;10231227;28;20071;-62
2021/04/06 02:03:30;;;;;;;3.10;1.10;;;;;;;1.91;57.13;99678.78;10236843;28;20499;-61
2021/04/06 02:08:31;;;;;;;5.35;1.73;;;;;;;1.94;57.09;99697.81;10231562;28;20058;-60
2021/04/06 02:13:32;;;;;;;6.50;1.50;;;;;;;1.90;57.60;99719.06;10220563;28;20125;-62
2021/04/06 02:18:33;;;;;;;3.55;1.98;;;;;;;2.00;57.37;99703.66;10222021;28;20114;-61
2021/04/06 02:23:42;;;;;;;6.22;1.58;;;;;;;2.11;57.75;99710.03;10229328;28;20105;-60
2021/04/06 02:28:45;;;;;;;2.95;1.27;;;;;;;2.10;58.34;99700.47;10230146;28;20684;-62
2021/04/06 02:33:46;;;;;;;6.55;1.73;;;;;;;2.23;58.38;99699.78;10227873;28;20082;-60
2021/04/06 02:38:47;;;;;;;3.95;2.13;;;;;;;2.28;59.56;99703.00;10246181;28;20083;-60
2021/04/06 02:43:53;;;;;;;5.63;1.55;;;;;;;2.35;60.08;99687.78;10254636;28;20073;-60
2021/04/06 02:48:56;;;;;;;2.83;1.33;;;;;;;2.37;60.49;99694.63;10240346;28;20106;-61
2021/04/06 02:53:57;;;;;;;5.15;2.92;;;;;;;2.55;60.02;99691.91;10224116;28;20075;-60
2021/04/06 02:59:14;;;;;;;7.15;2.55;;;;;;;2.51;59.92;99679.84;10232596;28;20430;-61
2021/04/06 03:04:26;;;;;;;5.50;1.80;;;;;;;2.47;59.40;99673.94;10237722;28;20046;-61
2021/04/06 03:09:27;;;;;;;5.00;1.90;;;;;;;2.70;59.28;99675.25;10243861;28;20074;-61
2021/04/06 03:14:28;;;;;;;4.65;1.67;;;;;;;2.53;59.65;99680.63;10255009;28;20051;-61
2021/04/06 03:19:31;;;;;;;3.38;1.60;;;;;;;2.56;59.45;99675.22;10225712;28;20103;-61
2021/04/06 03:24:33;;;;;;;4.60;1.98;;;;;;;2.41;60.29;99688.25;10255007;28;20104;-62
2021/04/06 03:29:35;;;;;;;5.68;1.52;;;;;;;2.57;59.78;99677.75;10254314;28;20074;-61
2021/04/06 03:34:39;;;;;;;4.03;1.55;;;;;;;2.52;60.34;99678.94;10236035;28;20409;-61
2021/04/06 03:39:41;;;;;;;4.28;1.90;;;;;;;2.74;59.13;99699.59;10256223;28;20149;-61
2021/04/06 03:44:41;;;;;;;4.68;1.40;;;;;;;2.74;59.42;99705.69;10240886;28;20050;-60
2021/04/06 03:49:49;;;;;;;6.57;3.05;;;;;;;2.70;59.00;99691.03;10236774;28;20050;-62
2021/04/06 03:54:50;;;;;;;2.60;1.40;;;;;;;2.75;58.96;99686.38;10239381;28;20074;-60
2021/04/06 03:59:52;;;;;;;3.95;1.65;;;;;;;2.80;59.26;99697.47;10238310;28;20050;-65
2021/04/06 04:04:56;;;;;;;3.35;1.80;;;;;;;2.93;58.43;99702.03;10232274;28;20105;-61
2021/04/06 04:09:57;;;;;;;3.28;1.50;;;;;;;3.09;58.25;99710.72;10230984;28;20432;-60
2021/04/06 04:14:58;;;;;;;5.68;1.60;;;;;;;3.24;58.21;99708.13;10249907;28;20071;-60
2021/04/06 04:19:59;;;;;;;6.35;1.83;;;;;;;3.09;58.08;99697.59;10233709;28;20501;-60
2021/04/06 04:25:01;;;;;;;4.95;1.80;;;;;;;2.99;58.80;99696.41;10250880;28;20083;-60
2021/04/06 04:30:03;;;;;;;5.50;1.70;;;;;;;2.87;60.21;99681.31;10242828;28;20074;-59
2021/04/06 04:35:09;;;;;;;4.68;2.60;;;;;;;2.84;60.65;99679.75;10242724;28;20105;-61
2021/04/06 04:40:11;;;;;;;3.80;1.95;;;;;;;2.97;61.42;99700.91;10237525;28;20074;-60
2021/04/06 04:45:12;;;;;;;3.05;1.33;;;;;;;2.98;63.48;99723.63;10222476;28;24095;-60
2021/04/06 04:50:17;;;;;;;3.65;1.48;;;;;;;2.98;63.73;99715.75;10258038;28;20105;-61
2021/04/06 04:55:19;;;;;;;2.47;1.33;;;;;;;3.03;63.63;99726.84;10250073;28;20189;-60
2021/04/06 05:00:21;;;;;;;4.80;1.88;;;;;;;3.14;64.40;99711.28;10236494;28;20107;-60
2021/04/06 05:05:22;;;;;;;4.78;2.08;;;;;;;3.07;63.34;99723.09;10220892;28;20862;-59
2021/04/06 05:10:24;;;;;;;5.40;2.38;;;;;;;3.25;62.80;99722.97;10228635;28;20084;-60
2021/04/06 05:15:25;;;;;;;6.32;1.95;;;;;;;3.22;61.32;99710.84;10222898;28;20055;-59
2021/04/06 05:20:26;;;;;;;3.75;1.80;;;;;;;3.15;60.90;99704.25;10235606;28;20047;-60
2021/04/06 05:25:28;;;;;;;4.47;2.15;;;;;;;3.51;59.35;99700.38;10242942;28;20079;-59
2021/04/06 05:30:29;;;;;;;4.65;2.55;;;;;;;3.69;58.24;99719.47;10244375;28;20055;-59
2021/04/06 05:35:30;;;;;;;3.83;1.88;;;;;;;3.59;58.26;99718.31;10226593;28;20133;-59
2021/04/06 05:40:31;;;;;;;3.90;2.05;;;;;;;3.46;58.92;99724.31;10219145;28;20098;-60
2021/04/06 05:45:33;;;;;;;3.53;1.77;;;;;;;3.23;59.82;99724.81;10239410;28;20138;-60
2021/04/06 05:50:34;;;;;;;8.05;2.03;;;;;;;3.47;59.67;99731.28;10232226;28;20082;-61
2021/04/06 05:55:35;;;;;;;3.38;1.42;;;;;;;3.59;59.13;99713.94;10235796;28;20047;-66
2021/04/06 06:00:36;;;;;;;3.80;1.27;;;;;;;4.37;59.38;99731.97;10210472;28;20080;-60
2021/04/06 06:05:40;;;;;;;4.15;1.73;;;;;;;3.94;57.98;99726.72;10214981;28;20684;-60
2021/04/06 06:10:41;;;;;;;6.03;2.25;;;;;;;3.92;57.85;99727.75;10209801;28;20046;-60
2021/04/06 06:15:42;;;;;;;3.97;2.38;;;;;;;3.94;58.07;99745.16;10234960;28;20050;-60
2021/04/06 06:20:52;;;;;;;3.95;2.05;;;;;;;3.86;57.79;99742.16;10228463;28;20062;-61
2021/04/06 06:26:02;;;;;;;4.07;1.77;;;;;;;4.02;57.20;99742.06;10239735;28;20776;-65
2021/04/06 06:31:04;;;;;;;4.18;2.22;;;;;;;3.99;57.03;99747.50;10231018;28;20083;-60
2021/04/06 06:36:12;;;;;;;8.95;2.70;;;;;;;4.03;57.50;99759.56;10246896;28;20440;-61
2021/04/06 06:41:19;;;;;;;7.47;3.15;;;;;;;3.99;57.32;99769.41;10238132;28;20081;-61
2021/04/06 06:46:23;;;;;;;5.85;2.30;;;;;;;4.15;57.09;99763.22;10251516;28;20550;-61
2021/04/06 06:51:35;;;;;;;4.35;2.55;;;;;;;4.31;56.64;99752.56;10257970;28;20055;-61
2021/04/06 06:56:39;;;;;;;5.53;2.28;;;;;;;4.63;54.63;99741.81;10247519;28;20100;-62
2021/04/06 07:01:40;;;;;;;7.85;2.53;;;;;;;4.63;54.38;99762.91;10248173;28;20070;-62
2021/04/06 07:06:45;;;;;;;4.60;1.80;;;;;;;4.51;54.53;99744.25;10241774;28;20043;-60
2021/04/06 07:11:48;;;;;;;4.55;1.70;;;;;;;4.64;54.01;99769.84;10265766;28;20066;-59
2021/04/06 07:16:50;;;;;;;7.10;2.25;;;;;;;4.57;54.13;99764.97;10250798;28;20074;-59
2021/04/06 07:21:57;;;;;;;9.63;2.58;;;;;;;4.63;53.90;99771.63;10327428;22;20081;-71
2021/04/06 07:27:12;;;;;;;4.82;2.20;;;;;;;4.48;54.17;99776.09;10297956;28;20055;-70
2021/04/06 07:32:14;;;;;;;6.03;2.65;;;;;;;4.56;54.31;99778.25;10276723;28;20493;-71
2021/04/06 07:37:15;;;;;;;7.25;2.50;;;;;;;4.82;53.19;99781.88;10257343;28;20057;-71
2021/04/06 07:42:16;;;;;;;6.40;2.35;;;;;;;4.67;52.93;99785.47;10281579;28;20055;-69
2021/04/06 07:47:35;;;;;;;4.82;2.13;;;;;;;5.20;51.78;99778.53;10268008;28;20445;-72
2021/04/06 07:52:36;;;;;;;6.55;2.30;;;;;;;5.45;51.29;99772.47;10273256;28;20141;-71
2021/04/06 07:57:43;;;;;;;7.85;3.17;;;;;;;5.44;50.43;99788.41;10279836;28;20042;-71
2021/04/06 08:02:44;;;;;;;8.48;2.08;;;;;;;5.98;48.91;99780.38;10272328;28;20053;-70
2021/04/06 08:07:46;;;;;;;8.38;2.25;;;;;;;6.24;47.81;99775.06;10267805;28;20058;-72
2021/04/06 08:12:48;;;;;;;5.28;2.45;;;;;;;6.68;46.05;99784.31;10271250;28;20658;-72
2021/04/06 08:17:54;;;;;;;4.50;1.58;;;;;;;6.21;46.45;99785.84;10273181;28;20560;-72
2021/04/06 08:22:59;;;;;;;5.93;1.70;;;;;;;6.29;46.07;99774.72;10290291;28;20058;-69
2021/04/06 08:28:02;;;;;;;4.72;1.40;;;;;;;6.41;43.96;99773.03;10304570;28;20050;-70
2021/04/06 08:33:03;;;;;;;5.60;1.60;;;;;;;6.19;44.76;99766.63;10312199;28;20050;-71
2021/04/06 08:43:29;;;;;;;6.57;1.55;;;;;;;5.52;42.98;99779.97;10287038;28;20062;-69
2021/04/06 08:48:45;;;;;;;5.33;1.73;;;;;;;5.20;43.73;99777.69;10271128;28;20039;-70
2021/04/06 08:53:49;;;;;;;7.22;1.40;;;;;;;5.43;44.13;99792.00;10268970;28;20074;-72
2021/04/06 08:58:50;;;;;;;3.67;1.10;;;;;;;5.59;43.22;99790.03;10275957;28;20047;-71
2021/04/06 09:03:51;;;;;;;8.10;1.48;;;;;;;5.48;43.26;99776.72;10287933;28;20081;-70
2021/04/06 09:08:55;;;;;;;4.28;1.27;;;;;;;5.38;41.23;99775.63;10273437;28;20047;-69
2021/04/06 09:13:56;;;;;;;2.53;1.67;;;;;;;5.72;42.10;99786.53;10274627;28;20055;-71
2021/04/06 09:19:16;;;;;;;7.47;1.65;;;;;;;6.70;40.41;99765.66;10273645;28;20438;-73
2021/04/06 09:24:18;;;;;;;5.38;1.38;;;;;;;6.17;40.94;99768.50;10277451;28;20047;-69
2021/04/06 09:29:22;;;;;;;3.35;1.20;;;;;;;6.62;40.84;99762.72;10278550;28;20145;-70
2021/04/06 09:34:26;;;;;;;3.22;1.15;;;;;;;7.84;39.71;99761.69;10271794;28;20070;-70
2021/04/06 09:39:29;;;;;;;2.57;1.10;;;;;;;8.23;37.94;99756.88;10268826;28;20066;-70
2021/04/06 09:44:36;;;;;;;4.32;1.42;;;;;;;8.29;38.08;99764.34;10263332;28;20074;-71
2021/04/06 09:49:41;;;;;;;4.82;1.40;;;;;;;7.84;38.95;99759.03;10258777;28;20094;-70
2021/04/06 09:54:44;;;;;;;5.05;1.42;;;;;;;7.46;41.16;99746.88;10253825;28;20552;-70
2021/04/06 09:59:54;;;;;;;4.05;1.40;;;;;;;7.44;41.43;99750.47;10268705;28;20525;-70
2021/04/06 10:04:56;;;;;;;3.33;1.35;;;;;;;7.16;42.01;99761.44;10265688;28;20046;-72
2021/04/06 10:10:04;;;;;;;3.33;1.00;;;;;;;7.92;40.36;99762.75;10272023;28;20598;-70
2021/04/06 10:15:06;;;;;;;4.05;1.20;;;;;;;6.84;41.90;99757.56;10270264;28;20121;-70
2021/04/06 10:20:16;;;;;;;2.65;1.00;;;;;;;7.74;40.33;99746.47;10278707;28;20790;-70
2021/04/06 10:25:32;;;;;;;3.72;1.00;;;;;;;10.30;34.43;99734.50;10264268;28;20482;-70
2021/04/06 10:30:41;;;;;;;3.40;0.90;;;;;;;8.73;36.42;99741.41;10253753;28;20047;-70
2021/04/06 10:35:44;;;;;;;3.20;0.90;;;;;;;7.96;36.18;99734.22;10266474;28;20594;-72
2021/04/06 10:40:46;;;;;;;3.70;0.82;;;;;;;11.04;31.29;99717.34;10260442;28;20394;-70
2021/04/06 10:45:50;;;;;;;3.28;1.10;;;;;;;11.04;30.38;99714.69;10278763;28;20046;-70
2021/04/06 10:50:55;;;;;;;2.22;0.88;;;;;;;13.39;26.85;99712.72;10271533;28;20051;-70
2021/04/06 10:56:03;;;;;;;4.88;1.63;;;;;;;13.41;28.14;99700.03;10272381;28;20093;-70
2021/04/06 11:01:08;;;;;;;4.45;1.30;;;;;;;13.29;27.49;99690.53;10266025;28;20130;-70
2021/04/06 11:06:12;;;;;;;5.22;1.48;;;;;;;9.64;34.47;99696.72;10255683;28;20046;-69
2021/04/06 11:11:30;;;;;;;4.28;1.00;;;;;;;7.67;39.17;99708.19;10266012;28;20079;-69
2021/04/06 11:16:33;;;;;;;2.08;0.65;;;;;;;9.71;36.22;99695.22;10265995;28;20043;-70
2021/04/06 11:21:36;;;;;;;3.13;0.95;;;;;;;19.95;21.89;99666.44;10261384;28;20111;-71
2021/04/06 11:26:37;;;;;;;3.20;1.10;;;;;;;14.78;27.36;99673.41;10270933;28;20132;-69
2021/04/06 11:31:40;;;;;;;2.88;1.00;;;;;;;15.88;26.27;99656.94;10261727;28;20623;-69
2021/04/06 11:36:43;;;;;;;4.35;1.05;;;;;;;23.34;18.06;99645.66;10274381;28;20051;-71
2021/04/06 11:41:45;;;;;;;2.67;1.10;;;;;;;25.53;14.74;99641.19;10278872;28;20050;-71
2021/04/06 11:46:47;;;;;;;2.95;0.88;;;;;;;25.25;14.50;99622.78;10280146;28;20066;-71
2021/04/06 11:51:48;;;;;;;2.55;0.68;;;;;;;26.83;12.25;99609.19;10274584;28;20082;-72
2021/04/06 11:56:50;;;;;;;4.07;1.15;;;;;;;27.50;12.09;99620.16;10304849;28;20051;-73
2021/04/06 12:01:51;;;;;;;5.10;1.80;;;;;;;27.39;11.67;99601.94;10273758;28;20070;-72
2021/04/06 12:06:52;;;;;;;2.65;0.47;;;;;;;27.16;12.55;99584.66;10257640;28;20101;-70
2021/04/06 12:11:53;;;;;;;2.97;0.60;;;;;;;23.38;15.67;99608.88;10262480;28;20112;-70
2021/04/06 12:16:54;;;;;;;3.13;1.17;;;;;;;26.70;13.59;99589.34;10262766;28;20133;-68
2021/04/06 12:21:54;;;;;;;2.60;0.77;;;;;;;27.85;11.28;99580.72;10267859;28;20061;-69
2021/04/06 12:26:57;;;;;;;2.20;0.82;;;;;;;27.78;11.19;99574.59;10260112;28;20050;-71
2021/04/06 12:31:58;;;;;;;3.15;0.30;;;;;;;26.30;11.69;99573.84;10261625;28;20074;-69
2021/04/06 12:36:59;;;;;;;0.57;0.30;;;;;;;26.44;10.86;99552.56;10259019;28;20055;-69
2021/04/06 12:42:20;;;;;;;4.43;0.50;;;;;;;27.22;11.13;99563.69;10257420;28;20301;-70
2021/04/06 12:47:21;;;;;;;1.00;0.20;;;;;;;25.30;12.11;99554.84;10259637;28;20054;-70
2021/04/06 12:52:22;;;;;;;1.38;0.55;;;;;;;20.12;16.83;99542.69;10269531;28;20046;-71
2021/04/06 12:57:24;;;;;;;0.70;0.10;;;;;;;18.59;16.26;99543.34;10277974;28;20051;-70
2021/04/06 13:02:25;;;;;;;0.95;0.20;;;;;;;14.75;19.55;99548.66;10274481;28;20055;-69
2021/04/06 13:07:26;;;;;;;1.23;0.30;;;;;;;13.88;20.95;99540.16;10268857;28;20094;-71
2021/04/06 13:12:27;;;;;;;1.63;0.45;;;;;;;12.90;22.50;99525.25;10255945;28;20056;-70
2021/04/06 13:17:28;;;;;;;3.08;0.50;;;;;;;11.13;26.05;99551.34;10255766;28;20078;-68
2021/04/06 13:22:29;;;;;;;0.70;0.20;;;;;;;10.60;29.25;99542.06;10256999;28;20726;-68
2021/04/06 13:27:30;;;;;;;1.02;0.30;;;;;;;10.61;28.97;99533.94;10258056;28;20602;-69
2021/04/06 13:32:31;;;;;;;1.30;0.40;;;;;;;11.37;26.49;99494.88;10264685;28;20575;-71
2021/04/06 13:37:32;;;;;;;2.40;0.75;;;;;;;12.06;25.24;99502.53;10311679;28;20043;-69
2021/04/06 13:42:35;;;;;;;1.58;0.35;;;;;;;11.46;26.00;99503.84;10303787;28;20069;-70
2021/04/06 13:47:37;;;;;;;1.27;0.30;;;;;;;11.32;25.59;99487.34;10272950;28;20063;-69
2021/04/06 13:52:38;;;;;;;1.80;0.50;;;;;;;10.27;26.54;99517.53;10263258;28;20324;-68
2021/04/06 13:57:41;;;;;;;2.88;0.75;;;;;;;9.53;28.55;99509.00;10260419;28;20074;-68
2021/04/06 14:02:43;;;;;;;0.93;0.20;;;;;;;8.47;29.05;99540.13;10259390;28;20138;-68
2021/04/06 14:07:43;;;;;;;2.55;0.35;;;;;;;7.92;33.36;99531.34;10255911;28;20178;-67
2021/04/06 14:12:44;;;;;;;1.88;0.40;;;;;;;7.82;34.18;99531.28;10253795;28;20051;-67
2021/04/06 14:17:46;;;;;;;0.88;0.40;;;;;;;7.77;35.12;99530.78;10260307;28;20133;-71
2021/04/06 14:22:47;;;;;;;2.42;0.20;;;;;;;8.76;32.68;99515.59;10263880;28;20054;-69
2021/04/06 14:27:51;;;;;;;2.08;0.40;;;;;;;8.56;33.00;99508.50;10262934;28;20133;-68
2021/04/06 14:32:52;;;;;;;1.65;0.35;;;;;;;8.60;33.89;99517.84;10265050;28;20047;-67
2021/04/06 14:37:53;;;;;;;1.48;0.63;;;;;;;8.45;34.40;99504.06;10256888;28;20105;-69
2021/04/06 14:43:13;;;;;;;1.83;0.50;;;;;;;8.55;34.11;99497.03;10259969;28;20126;-68
2021/04/06 14:48:15;;;;;;;1.00;0.50;;;;;;;9.01;34.11;99487.81;10269886;28;20600;-68
2021/04/06 14:53:17;;;;;;;1.05;0.25;;;;;;;8.91;32.02;99483.44;10274346;28;20098;-71
2021/04/06 14:58:24;;;;;;;1.85;0.57;;;;;;;8.11;32.94;99510.34;10261241;28;20518;-69
2021/04/06 15:03:28;;;;;;;1.23;0.50;;;;;;;8.14;33.60;99504.78;10259568;28;20148;-67
2021/04/06 15:08:35;;;;;;;1.80;0.55;;;;;;;7.58;35.18;99496.97;10260480;28;20042;-68
2021/04/06 15:13:37;;;;;;;3.33;1.00;;;;;;;7.72;38.80;99507.31;10261798;28;20090;-68
2021/04/06 15:18:41;;;;;;;4.72;1.10;;;;;;;7.49;42.53;99519.75;10262770;28;20074;-69
2021/04/06 15:23:45;;;;;;;4.10;1.20;;;;;;;8.13;41.77;99510.22;10259873;28;20062;-68
2021/04/06 15:28:47;;;;;;;2.42;0.98;;;;;;;8.31;40.73;99505.19;10360772;22;20076;-57
2021/04/06 15:33:48;;;;;;;1.88;0.90;;;;;;;7.64;40.69;99520.34;10341713;28;20058;-57
2021/04/06 15:38:49;;;;;;;0.77;0.35;;;;;;;7.15;42.72;99526.84;10338695;28;20062;-56
2021/04/06 15:43:50;;;;;;;0.47;0.22;;;;;;;7.04;41.99;99525.88;10333000;28;20490;-57
2021/04/06 15:49:12;;;;;;;1.10;0.40;;;;;;;7.59;40.99;99527.78;10333822;28;20077;-57
2021/04/06 15:54:14;;;;;;;2.55;0.60;;;;;;;7.70;40.11;99517.19;10333114;28;20534;-64
2021/04/06 15:59:16;;;;;;;4.38;1.77;;;;;;;7.74;40.10;99531.03;10333836;28;20051;-57
2021/04/06 16:04:17;;;;;;;1.45;0.60;;;;;;;7.29;40.89;99539.84;10331987;28;20486;-56
2021/04/06 16:09:18;;;;;;;1.92;0.68;;;;;;;7.12;41.29;99550.91;10336533;28;20050;-57
2021/04/06 16:14:19;;;;;;;1.40;0.57;;;;;;;6.13;45.34;99558.28;10331553;28;20049;-58
2021/04/06 16:19:20;;;;;;;3.47;0.93;;;;;;;5.96;47.97;99560.31;10326616;28;20053;-56
2021/04/06 16:24:22;;;;;;;1.55;0.80;;;;;;;6.41;47.43;99554.47;10337882;28;20648;-58
2021/04/06 16:29:23;;;;;;;1.98;0.60;;;;;;;5.99;44.85;99523.16;10332263;28;20555;-56
2021/04/06 16:34:24;;;;;;;1.77;0.70;;;;;;;6.49;43.03;99540.66;10336302;28;20149;-60
2021/04/06 16:39:25;;;;;;;1.55;0.60;;;;;;;6.33;42.92;99533.03;10329582;28;20100;-56
2021/04/06 16:44:26;;;;;;;1.13;0.80;;;;;;;6.28;40.99;99543.94;10337224;28;20049;-55
2021/04/06 16:49:27;;;;;;;2.63;0.70;;;;;;;6.42;39.98;99540.25;10332026;28;20164;-56
2021/04/06 16:54:29;;;;;;;1.30;0.40;;;;;;;6.23;38.98;99540.81;10331981;28;20128;-57
2021/04/06 16:59:30;;;;;;;0.60;0.30;;;;;;;6.11;39.23;99537.25;10334869;28;20181;-58
2021/04/06 17:04:31;;;;;;;1.08;0.40;;;;;;;5.81;40.10;99530.59;10313933;28;20479;-57
2021/04/06 17:09:32;;;;;;;0.90;0.52;;;;;;;5.89;39.82;99545.88;10317644;28;20045;-57
2021/04/06 17:14:33;;;;;;;2.80;0.40;;;;;;;5.59;40.96;99562.94;10338432;28;20450;-55
2021/04/06 17:19:34;;;;;;;1.40;0.70;;;;;;;5.50;42.99;99576.81;10337662;28;20281;-63
2021/04/06 17:24:36;;;;;;;3.78;0.80;;;;;;;5.55;47.16;99585.22;10315934;28;20590;-56
2021/04/06 17:29:37;;;;;;;1.25;0.40;;;;;;;5.48;47.97;99578.72;10333189;28;20053;-58
2021/04/06 17:34:38;;;;;;;0.68;0.32;;;;;;;4.96;49.59;99576.06;10325528;28;20740;-59
2021/04/06 17:39:39;;;;;;;1.23;0.47;;;;;;;4.62;50.66;99571.38;10314169;28;20052;-57
2021/04/06 17:44:40;;;;;;;0.95;0.47;;;;;;;4.87;50.21;99586.41;10331134;28;20080;-58
2021/04/06 17:49:42;;;;;;;0.52;0.32;;;;;;;5.44;49.33;99579.88;10333486;28;20149;-58
2021/04/06 17:54:43;;;;;;;1.38;0.45;;;;;;;5.38;48.65;99604.06;10319823;28;20057;-58
2021/04/06 17:59:44;;;;;;;1.45;0.40;;;;;;;4.98;49.71;99602.34;10329963;28;20154;-58
2021/04/06 18:04:45;;;;;;;0.80;0.30;;;;;;;3.78;56.93;99608.34;10315716;28;20116;-60
2021/04/06 18:09:46;;;;;;;3.10;2.33;;;;;;;4.70;68.85;99617.38;10329556;28;20108;-56
2021/04/06 18:14:47;;;;;;;1.65;0.82;;;;;;;5.18;56.49;99585.16;10328603;28;20061;-57
2021/04/06 18:19:48;;;;;;;0.90;0.65;;;;;;;4.76;56.35;99605.59;10332064;28;20154;-59
2021/04/06 18:24:49;;;;;;;2.85;1.92;;;;;;;4.43;57.33;99628.78;10309994;28;20499;-57
2021/04/06 18:29:50;;;;;;;1.95;1.02;;;;;;;4.56;56.14;99628.84;10324683;28;20042;-57
2021/04/06 18:34:51;;;;;;;2.15;1.00;;;;;;;4.06;54.83;99636.41;10327794;28;20057;-57
2021/04/06 18:39:54;;;;;;;0.88;0.70;;;;;;;3.78;54.53;99633.81;10321036;28;20131;-58
2021/04/06 18:44:56;;;;;;;1.58;0.63;;;;;;;4.20;54.71;99634.69;10328454;28;20089;-57
2021/04/06 18:49:57;;;;;;;6.70;2.53;;;;;;;4.30;54.19;99642.88;10330680;28;20057;-59
2021/04/06 18:54:58;;;;;;;2.65;1.33;;;;;;;4.56;53.34;99647.31;10342616;28;20074;-58
2021/04/06 19:00:00;;;;;;;2.20;0.93;;;;;;;3.99;55.18;99645.63;10338729;28;20153;-58
2021/04/06 19:05:04;;;;;;;1.67;0.80;;;;;;;3.91;56.55;99645.28;10343606;28;20053;-56
2021/04/06 19:10:08;;;;;;;2.35;0.90;;;;;;;4.28;55.91;99650.00;10339538;28;21111;-57
2021/04/06 19:15:16;;;;;;;4.80;1.67;;;;;;;4.44;55.95;99658.63;10335354;28;20050;-57
2021/04/06 19:20:18;;;;;;;1.30;0.80;;;;;;;4.55;55.03;99666.69;10333387;28;21104;-57
2021/04/06 19:25:19;;;;;;;2.00;0.98;;;;;;;4.17;56.28;99667.34;10329112;28;20077;-57
2021/04/06 19:30:20;;;;;;;1.80;0.98;;;;;;;4.29;56.09;99663.06;10330512;28;20050;-57
2021/04/06 19:35:22;;;;;;;2.40;0.82;;;;;;;4.20;55.02;99656.63;10338151;28;20151;-57
2021/04/06 19:40:24;;;;;;;3.22;0.95;;;;;;;4.36;53.49;99666.19;10335064;28;20152;-58
2021/04/06 19:45:26;;;;;;;2.47;1.50;;;;;;;3.88;52.51;99666.53;10330111;28;20080;-62
2021/04/06 19:50:29;;;;;;;2.85;1.48;;;;;;;3.79;52.41;99660.06;10332266;28;20639;-59
2021/04/06 19:55:32;;;;;;;1.80;1.48;;;;;;;4.21;51.57;99646.94;10316673;28;20065;-59
2021/04/06 20:00:40;;;;;;;5.95;3.97;;;;;;;4.12;50.11;99652.78;10337157;28;20100;-58
2021/04/06 20:05:42;;;;;;;3.63;1.80;;;;;;;4.41;49.39;99654.41;10337293;28;20103;-59
2021/04/06 20:10:45;;;;;;;4.90;1.75;;;;;;;4.20;49.90;99661.91;10336092;28;20092;-58
2021/04/06 20:15:49;;;;;;;2.65;1.70;;;;;;;4.51;49.26;99652.00;10332689;28;20995;-63
2021/04/06 20:20:58;;;;;;;2.67;1.60;;;;;;;4.60;48.13;99659.31;10343689;28;20622;-57
2021/04/06 20:25:59;;;;;;;3.17;1.67;;;;;;;4.27;49.25;99661.50;10344344;28;20092;-58
2021/04/06 20:31:03;;;;;;;2.05;1.65;;;;;;;4.48;49.30;99660.13;10341649;28;20065;-58
2021/04/06 20:36:06;;;;;;;3.90;1.67;;;;;;;4.41;49.07;99664.09;10335912;28;20052;-58
2021/04/06 20:41:08;;;;;;;3.33;2.17;;;;;;;4.17;49.67;99656.78;10340887;28;20129;-57
2021/04/06 20:46:10;;;;;;;1.95;1.60;;;;;;;4.48;49.27;99657.47;10336508;28;20049;-58
2021/04/06 20:51:11;;;;;;;3.17;1.60;;;;;;;4.19;51.18;99657.56;10320996;28;20192;-58
2021/04/06 20:56:12;;;;;;;2.72;1.73;;;;;;;4.24;51.54;99675.72;10332819;28;20057;-61
2021/04/06 21:01:13;;;;;;;1.75;1.27;;;;;;;3.91;52.85;99673.41;10316323;28;20112;-59
2021/04/06 21:06:28;;;;;;;2.03;1.80;;;;;;;3.86;52.26;99656.09;10335543;28;20060;-64
2021/04/06 21:11:29;;;;;;;4.70;2.20;;;;;;;3.93;52.61;99685.53;10329805;28;20046;-59
2021/04/06 21:16:30;;;;;;;2.55;2.00;;;;;;;3.52;53.64;99681.84;10315666;28;20066;-61
2021/04/06 21:21:32;;;;;;;3.78;2.67;;;;;;;4.02;53.00;99674.44;10338451;28;20193;-58
2021/04/06 21:26:33;;;;;;;2.72;2.33;;;;;;;4.30;51.97;99671.84;10340675;28;20053;-57
2021/04/06 21:31:34;;;;;;;5.15;2.40;;;;;;;4.04;51.85;99666.44;10316984;28;20054;-60
2021/04/06 21:36:35;;;;;;;3.35;2.83;;;;;;;3.91;52.04;99676.06;10338784;28;20080;-59
2021/04/06 21:41:35;;;;;;;3.58;3.17;;;;;;;3.77;52.48;99680.38;10337305;28;20041;-58
2021/04/06 21:46:36;;;;;;;3.45;2.45;;;;;;;4.11;51.90;99686.16;10333643;28;20050;-59
2021/04/06 21:51:42;;;;;;;3.72;3.15;;;;;;;3.97;51.77;99686.19;10349301;22;21615;-59
2021/04/06 21:56:43;;;;;;;3.53;2.35;;;;;;;3.51;53.82;99688.06;10320940;28;20159;-61
2021/04/06 22:01:44;;;;;;;3.38;2.90;;;;;;;3.43;54.19;99698.19;10307464;28;20527;-60
2021/04/06 22:06:45;;;;;;;5.00;3.15;;;;;;;3.63;54.08;99698.78;10292290;28;20047;-59
2021/04/06 22:11:49;;;;;;;3.38;2.90;;;;;;;3.47;53.85;99693.63;10220324;28;20054;-59
2021/04/06 22:16:50;;;;;;;6.57;3.10;;;;;;;3.32;54.01;99696.22;10289222;28;20159;-59
2021/04/06 22:21:51;;;;;;;4.28;3.15;;;;;;;3.21;55.09;99700.41;10301949;28;20053;-61
2021/04/06 22:26:52;;;;;;;3.00;2.75;;;;;;;2.91;58.03;99711.78;10308388;28;20046;-60
2021/04/06 22:31:53;;;;;;;3.72;3.35;;;;;;;3.12;57.78;99704.41;10313599;28;20043;-61
2021/04/06 22:36:54;;;;;;;3.03;2.70;;;;;;;3.12;57.72;99707.91;10307119;28;20057;-60
2021/04/06 22:41:55;;;;;;;3.67;2.95;;;;;;;3.18;56.60;99709.31;10307640;28;20054;-60
2021/04/06 22:46:56;;;;;;;4.47;2.85;;;;;;;3.17;56.88;99716.38;10302189;28;20064;-60
2021/04/06 22:51:58;;;;;;;2.75;2.45;;;;;;;3.56;55.36;99705.34;10308127;28;20054;-63
2021/04/06 22:57:04;;;;;;;3.47;2.47;;;;;;;3.40;54.31;99703.66;10302623;28;20123;-60
2021/04/06 23:02:05;;;;;;;5.60;2.97;;;;;;;3.38;54.01;99710.78;10310288;28;20115;-59
2021/04/06 23:07:06;;;;;;;4.95;3.25;;;;;;;3.15;54.44;99726.16;10300302;28;20046;-60
2021/04/06 23:12:07;;;;;;;2.97;2.70;;;;;;;3.19;54.57;99714.50;10300760;28;20050;-60
2021/04/06 23:17:09;;;;;;;4.47;2.90;;;;;;;3.54;53.79;99721.25;10303079;28;20053;-59
2021/04/06 23:22:11;;;;;;;3.03;2.72;;;;;;;3.42;54.08;99733.34;10303097;28;20695;-59
2021/04/06 23:27:12;;;;;;;2.50;2.30;;;;;;;3.46;54.17;99734.84;10322412;28;20053;-60
2021/04/06 23:32:13;;;;;;;3.20;2.83;;;;;;;3.61;53.71;99738.34;10311935;28;20038;-59
2021/04/06 23:37:14;;;;;;;2.72;2.53;;;;;;;3.33;54.79;99739.16;10315463;28;20115;-60
2021/04/06 23:42:15;;;;;;;4.32;2.72;;;;;;;3.07;55.83;99744.13;10315790;28;20074;-60
2021/04/06 23:47:16;;;;;;;4.47;2.97;;;;;;;2.91;57.23;99744.19;10313502;28;20051;-60
2021/04/06 23:52:17;;;;;;;3.40;2.92;;;;;;;2.81;57.71;99743.84;10311334;28;20750;-61